Nagaleader — VRDD5 — position and weather

sailwx.info

Track history (hours):
 
Tides and Currents Weather Stations Pressure Air Temp Water Temp Dewpoint Dewpoint Depression Visibility Wind Speed Wind Dir Waves Ship Positions

Nagaleader

Last reported at 2016-Feb-12 05:30 UTC. Time now 2016-Feb-12 05:41 UTC.
Position N 26°07' E 119°33'.

Length 113 m; draft 6.1 m.

Type: Cargo ship. MMSI: 477926700.

Date/timePositionNaut miles runAvg speedWind from/ knotsBaromVisibWave heightAir tempDewpointWater temp
2016-Feb-12 05:30N 26°07' E 119°33'0 0.0
2016-Feb-12 04:30N 26°07' E 119°33'3 3.6
2016-Feb-12 03:33N 26°04' E 119°31'5 4.6
2016-Feb-12 02:30N 26°00' E 119°29'0 0.0
2016-Feb-12 01:29N 26°00' E 119°29'0 0.0
2016-Feb-12 00:33N 26°00' E 119°29'0 0.0
2016-Feb-11 22:31N 26°00' E 119°29'0 0.0
2016-Feb-11 21:31N 26°00' E 119°29'0 0.0
2016-Feb-11 20:19N 26°00' E 119°29'0 0.0
2016-Feb-11 19:31N 26°00' E 119°29'0 0.0
2016-Feb-11 18:31N 26°00' E 119°29'0 0.0
2016-Feb-11 17:31N 26°00' E 119°29'0 0.0
2016-Feb-11 16:31N 26°00' E 119°29'0 0.0
2016-Feb-11 15:13N 26°00' E 119°29'4 6.6
2016-Feb-11 14:33N 26°04' E 119°31'19412.1
2016-Feb-10 22:33N 22°52' E 120°04'1313.0
2016-Feb-10 21:33N 22°41' E 120°10'1110.5
2016-Feb-10 20:33N 22°33' E 120°18'1 1.1
2016-Feb-10 19:26N 22°34' E 120°19'0 0.0
2016-Feb-10 18:32N 22°34' E 120°19'0 0.0
2016-Feb-10 17:26N 22°34' E 120°19'0 0.0
2016-Feb-10 16:32N 22°34' E 120°19'0 0.0
2016-Feb-10 15:32N 22°34' E 120°19'0 0.0
2016-Feb-10 14:32N 22°34' E 120°19'0 0.0
2016-Feb-10 13:32N 22°34' E 120°19'0 0.0
2016-Feb-10 12:32N 22°34' E 120°19'0 0.0
2016-Feb-10 11:32N 22°34' E 120°19'1 1.1
2016-Feb-10 10:33N 22°33' E 120°20'1 0.1
2016-Feb-10 01:33N 22°33' E 120°19'4 3.6
2016-Feb-10 00:29N 22°31' E 120°15'0 0.1
2016-Feb-09 23:29N 22°31' E 120°15'0 0.1
2016-Feb-09 22:29N 22°31' E 120°15'0 0.1
2016-Feb-09 21:23N 22°31' E 120°15'0 0.1
2016-Feb-09 20:29N 22°31' E 120°15'0 0.0
2016-Feb-09 19:29N 22°31' E 120°15'0 0.1
2016-Feb-09 18:29N 22°31' E 120°15'0 0.0
2016-Feb-09 17:29N 22°31' E 120°15'0 0.0
2016-Feb-09 16:29N 22°31' E 120°15'0 0.1
2016-Feb-09 15:23N 22°31' E 120°15'0 0.1
2016-Feb-09 14:29N 22°31' E 120°15'0 0.1
2016-Feb-09 13:17N 22°31' E 120°15'0 0.1
2016-Feb-09 12:23N 22°31' E 120°15'0 0.0
2016-Feb-09 11:17N 22°31' E 120°15'0 0.0
2016-Feb-09 10:17N 22°31' E 120°15'0 0.0
2016-Feb-09 09:29N 22°31' E 120°15'0 0.0
2016-Feb-09 08:29N 22°31' E 120°15'0 0.0
2016-Feb-09 07:29N 22°31' E 120°15'0 0.0
2016-Feb-09 06:29N 22°31' E 120°15'0 0.0
2016-Feb-09 05:23N 22°31' E 120°15'0 0.1
2016-Feb-09 04:29N 22°31' E 120°15'0 0.1
2016-Feb-09 03:29N 22°31' E 120°15'0 0.0
2016-Feb-09 02:28N 22°31' E 120°15'0 0.1
2016-Feb-09 01:28N 22°31' E 120°15'0 0.0
2016-Feb-09 00:33N 22°31' E 120°15'5 5.0
2016-Feb-08 23:33N 22°35' E 120°11'1111.3
2016-Feb-08 22:33N 22°45' E 120°07'17612.4
2016-Feb-08 08:22N 25°41' E 119°56'3310.8
2016-Feb-08 05:19N 26°08' E 119°35'810.6
2016-Feb-08 04:33N 26°02' E 119°30'2 1.7
2016-Feb-08 03:32N 26°00' E 119°29'0 0.0
2016-Feb-08 02:28N 26°00' E 119°29'0 0.0
2016-Feb-08 01:28N 26°00' E 119°29'0 0.0
2016-Feb-08 00:28N 26°00' E 119°29'0 0.0
2016-Feb-07 23:28N 26°00' E 119°29'0 0.0
2016-Feb-07 22:28N 26°00' E 119°29'0 0.0
2016-Feb-07 21:28N 26°00' E 119°29'0 0.0
2016-Feb-07 20:28N 26°00' E 119°29'0 0.0
2016-Feb-07 19:28N 26°00' E 119°29'0 0.0
2016-Feb-07 18:22N 26°00' E 119°29'0 0.0
2016-Feb-07 17:28N 26°00' E 119°29'0 0.0
2016-Feb-07 16:22N 26°00' E 119°29'0 0.0
2016-Feb-07 15:28N 26°00' E 119°29'0 0.0
2016-Feb-07 14:16N 26°00' E 119°29'0 0.1
2016-Feb-07 13:28N 26°00' E 119°29'0 0.0
2016-Feb-07 12:28N 26°00' E 119°29'0 0.1
2016-Feb-07 11:28N 26°00' E 119°29'0 0.1
2016-Feb-07 10:28N 26°00' E 119°29'0 0.0
2016-Feb-07 09:22N 26°00' E 119°29'0 0.0
2016-Feb-07 08:28N 26°00' E 119°29'0 0.0
2016-Feb-07 07:28N 26°00' E 119°29'0 0.0
2016-Feb-07 05:25N 26°00' E 119°29'0 0.0
2016-Feb-07 04:28N 26°00' E 119°29'0 0.0
2016-Feb-07 03:28N 26°00' E 119°29'3 3.3
2016-Feb-07 02:33N 26°03' E 119°30'68 7.6
2016-Feb-06 17:33N 24°55' E 119°19'131 7.3
2016-Feb-05 23:33N 22°48' E 119°54'8 7.7
2016-Feb-05 22:33N 22°43' E 120°00'9 9.0
2016-Feb-05 21:33N 22°36' E 120°07'9 9.0
2016-Feb-05 20:33N 22°33' E 120°16'3 2.7
2016-Feb-05 19:33N 22°34' E 120°19'0 0.0
2016-Feb-05 18:29N 22°34' E 120°19'0 0.0
2016-Feb-05 17:29N 22°34' E 120°19'0 0.0
2016-Feb-05 16:29N 22°34' E 120°19'0 0.0
2016-Feb-05 15:29N 22°34' E 120°19'0 0.0
2016-Feb-05 14:23N 22°34' E 120°19'0 0.0
2016-Feb-05 13:29N 22°34' E 120°19'0 0.0
2016-Feb-05 12:29N 22°34' E 120°19'0 0.0
2016-Feb-05 11:29N 22°34' E 120°19'0 0.0
2016-Feb-05 10:29N 22°34' E 120°19'0 0.0
2016-Feb-05 09:29N 22°34' E 120°19'1 1.3
2016-Feb-05 08:32N 22°33' E 120°20'0 0.0
2016-Feb-04 20:09N 22°33' E 120°20'4 7.5
2016-Feb-04 19:33N 22°32' E 120°15'10 9.9
2016-Feb-04 18:33N 22°40' E 120°09'20611.3
2016-Feb-04 00:22N 26°03' E 119°31'3 4.2
2016-Feb-03 23:33N 26°00' E 119°29'0 0.0
2016-Feb-03 22:28N 26°00' E 119°29'0 0.0
2016-Feb-03 21:22N 26°00' E 119°29'0 0.0
2016-Feb-03 20:28N 26°00' E 119°29'0 0.0
2016-Feb-03 19:28N 26°00' E 119°29'0 0.0
2016-Feb-03 18:22N 26°00' E 119°29'0 0.0
2016-Feb-03 17:28N 26°00' E 119°29'0 0.0
2016-Feb-03 16:22N 26°00' E 119°29'0 0.0
2016-Feb-03 15:28N 26°00' E 119°29'0 0.1
2016-Feb-03 14:28N 26°00' E 119°29'0 0.1
2016-Feb-03 13:28N 26°00' E 119°29'0 0.0
2016-Feb-03 12:28N 26°00' E 119°29'0 0.0
2016-Feb-03 11:04N 26°00' E 119°29'0 0.0
2016-Feb-03 10:10N 26°00' E 119°29'0 0.0
2016-Feb-03 09:04N 26°00' E 119°29'0 0.0
2016-Feb-03 08:28N 26°00' E 119°29'0 0.5
2016-Feb-03 07:33N 26°01' E 119°29'65 5.9
2016-Feb-02 20:25N 24°56' E 119°19'  
Track history (hours):
 
Tides and Currents Weather Stations Pressure Air Temp Water Temp Dewpoint Dewpoint Depression Visibility Wind Speed Wind Dir Waves Ship Positions

Nagaleader

Last reported at 2016-Feb-12 05:30 UTC. Time now 2016-Feb-12 05:41 UTC.
Position N 26°07' E 119°33'.

Length 113 m; draft 6.1 m.

Type: Cargo ship. MMSI: 477926700.

Date/timePositionNaut miles runAvg speedWind from/ knotsBaromVisibWave heightAir tempDewpointWater temp
2016-Feb-12 05:30N 26°07' E 119°33'0 0.0
2016-Feb-12 04:30N 26°07' E 119°33'3 3.6
2016-Feb-12 03:33N 26°04' E 119°31'5 4.6
2016-Feb-12 02:30N 26°00' E 119°29'0 0.0
2016-Feb-12 01:29N 26°00' E 119°29'0 0.0
2016-Feb-12 00:33N 26°00' E 119°29'0 0.0
2016-Feb-11 22:31N 26°00' E 119°29'0 0.0
2016-Feb-11 21:31N 26°00' E 119°29'0 0.0
2016-Feb-11 20:19N 26°00' E 119°29'0 0.0
2016-Feb-11 19:31N 26°00' E 119°29'0 0.0
2016-Feb-11 18:31N 26°00' E 119°29'0 0.0
2016-Feb-11 17:31N 26°00' E 119°29'0 0.0
2016-Feb-11 16:31N 26°00' E 119°29'0 0.0
2016-Feb-11 15:13N 26°00' E 119°29'4 6.6
2016-Feb-11 14:33N 26°04' E 119°31'19412.1
2016-Feb-10 22:33N 22°52' E 120°04'1313.0
2016-Feb-10 21:33N 22°41' E 120°10'1110.5
2016-Feb-10 20:33N 22°33' E 120°18'1 1.1
2016-Feb-10 19:26N 22°34' E 120°19'0 0.0
2016-Feb-10 18:32N 22°34' E 120°19'0 0.0
2016-Feb-10 17:26N 22°34' E 120°19'0 0.0
2016-Feb-10 16:32N 22°34' E 120°19'0 0.0
2016-Feb-10 15:32N 22°34' E 120°19'0 0.0
2016-Feb-10 14:32N 22°34' E 120°19'0 0.0
2016-Feb-10 13:32N 22°34' E 120°19'0 0.0
2016-Feb-10 12:32N 22°34' E 120°19'0 0.0
2016-Feb-10 11:32N 22°34' E 120°19'1 1.1
2016-Feb-10 10:33N 22°33' E 120°20'1 0.1
2016-Feb-10 01:33N 22°33' E 120°19'4 3.6
2016-Feb-10 00:29N 22°31' E 120°15'0 0.1
2016-Feb-09 23:29N 22°31' E 120°15'0 0.1
2016-Feb-09 22:29N 22°31' E 120°15'0 0.1
2016-Feb-09 21:23N 22°31' E 120°15'0 0.1
2016-Feb-09 20:29N 22°31' E 120°15'0 0.0
2016-Feb-09 19:29N 22°31' E 120°15'0 0.1
2016-Feb-09 18:29N 22°31' E 120°15'0 0.0
2016-Feb-09 17:29N 22°31' E 120°15'0 0.0
2016-Feb-09 16:29N 22°31' E 120°15'0 0.1
2016-Feb-09 15:23N 22°31' E 120°15'0 0.1
2016-Feb-09 14:29N 22°31' E 120°15'0 0.1
2016-Feb-09 13:17N 22°31' E 120°15'0 0.1
2016-Feb-09 12:23N 22°31' E 120°15'0 0.0
2016-Feb-09 11:17N 22°31' E 120°15'0 0.0
2016-Feb-09 10:17N 22°31' E 120°15'0 0.0
2016-Feb-09 09:29N 22°31' E 120°15'0 0.0
2016-Feb-09 08:29N 22°31' E 120°15'0 0.0
2016-Feb-09 07:29N 22°31' E 120°15'0 0.0
2016-Feb-09 06:29N 22°31' E 120°15'0 0.0
2016-Feb-09 05:23N 22°31' E 120°15'0 0.1
2016-Feb-09 04:29N 22°31' E 120°15'0 0.1
2016-Feb-09 03:29N 22°31' E 120°15'0 0.0
2016-Feb-09 02:28N 22°31' E 120°15'0 0.1
2016-Feb-09 01:28N 22°31' E 120°15'0 0.0
2016-Feb-09 00:33N 22°31' E 120°15'5 5.0
2016-Feb-08 23:33N 22°35' E 120°11'1111.3
2016-Feb-08 22:33N 22°45' E 120°07'17612.4
2016-Feb-08 08:22N 25°41' E 119°56'3310.8
2016-Feb-08 05:19N 26°08' E 119°35'810.6
2016-Feb-08 04:33N 26°02' E 119°30'2 1.7
2016-Feb-08 03:32N 26°00' E 119°29'0 0.0
2016-Feb-08 02:28N 26°00' E 119°29'0 0.0
2016-Feb-08 01:28N 26°00' E 119°29'0 0.0
2016-Feb-08 00:28N 26°00' E 119°29'0 0.0
2016-Feb-07 23:28N 26°00' E 119°29'0 0.0
2016-Feb-07 22:28N 26°00' E 119°29'0 0.0
2016-Feb-07 21:28N 26°00' E 119°29'0 0.0
2016-Feb-07 20:28N 26°00' E 119°29'0 0.0
2016-Feb-07 19:28N 26°00' E 119°29'0 0.0
2016-Feb-07 18:22N 26°00' E 119°29'0 0.0
2016-Feb-07 17:28N 26°00' E 119°29'0 0.0
2016-Feb-07 16:22N 26°00' E 119°29'0 0.0
2016-Feb-07 15:28N 26°00' E 119°29'0 0.0
2016-Feb-07 14:16N 26°00' E 119°29'0 0.1
2016-Feb-07 13:28N 26°00' E 119°29'0 0.0
2016-Feb-07 12:28N 26°00' E 119°29'0 0.1
2016-Feb-07 11:28N 26°00' E 119°29'0 0.1
2016-Feb-07 10:28N 26°00' E 119°29'0 0.0
2016-Feb-07 09:22N 26°00' E 119°29'0 0.0
2016-Feb-07 08:28N 26°00' E 119°29'0 0.0
2016-Feb-07 07:28N 26°00' E 119°29'0 0.0
2016-Feb-07 05:25N 26°00' E 119°29'0 0.0
2016-Feb-07 04:28N 26°00' E 119°29'0 0.0
2016-Feb-07 03:28N 26°00' E 119°29'3 3.3
2016-Feb-07 02:33N 26°03' E 119°30'68 7.6
2016-Feb-06 17:33N 24°55' E 119°19'131 7.3
2016-Feb-05 23:33N 22°48' E 119°54'8 7.7
2016-Feb-05 22:33N 22°43' E 120°00'9 9.0
2016-Feb-05 21:33N 22°36' E 120°07'9 9.0
2016-Feb-05 20:33N 22°33' E 120°16'3 2.7
2016-Feb-05 19:33N 22°34' E 120°19'0 0.0
2016-Feb-05 18:29N 22°34' E 120°19'0 0.0
2016-Feb-05 17:29N 22°34' E 120°19'0 0.0
2016-Feb-05 16:29N 22°34' E 120°19'0 0.0
2016-Feb-05 15:29N 22°34' E 120°19'0 0.0
2016-Feb-05 14:23N 22°34' E 120°19'0 0.0
2016-Feb-05 13:29N 22°34' E 120°19'0 0.0
2016-Feb-05 12:29N 22°34' E 120°19'0 0.0
2016-Feb-05 11:29N 22°34' E 120°19'0 0.0
2016-Feb-05 10:29N 22°34' E 120°19'0 0.0
2016-Feb-05 09:29N 22°34' E 120°19'1 1.3
2016-Feb-05 08:32N 22°33' E 120°20'0 0.0
2016-Feb-04 20:09N 22°33' E 120°20'4 7.5
2016-Feb-04 19:33N 22°32' E 120°15'10 9.9
2016-Feb-04 18:33N 22°40' E 120°09'20611.3
2016-Feb-04 00:22N 26°03' E 119°31'3 4.2
2016-Feb-03 23:33N 26°00' E 119°29'0 0.0
2016-Feb-03 22:28N 26°00' E 119°29'0 0.0
2016-Feb-03 21:22N 26°00' E 119°29'0 0.0
2016-Feb-03 20:28N 26°00' E 119°29'0 0.0
2016-Feb-03 19:28N 26°00' E 119°29'0 0.0
2016-Feb-03 18:22N 26°00' E 119°29'0 0.0
2016-Feb-03 17:28N 26°00' E 119°29'0 0.0
2016-Feb-03 16:22N 26°00' E 119°29'0 0.0
2016-Feb-03 15:28N 26°00' E 119°29'0 0.1
2016-Feb-03 14:28N 26°00' E 119°29'0 0.1
2016-Feb-03 13:28N 26°00' E 119°29'0 0.0
2016-Feb-03 12:28N 26°00' E 119°29'0 0.0
2016-Feb-03 11:04N 26°00' E 119°29'0 0.0
2016-Feb-03 10:10N 26°00' E 119°29'0 0.0
2016-Feb-03 09:04N 26°00' E 119°29'0 0.0
2016-Feb-03 08:28N 26°00' E 119°29'0 0.5
2016-Feb-03 07:33N 26°01' E 119°29'65 5.9
2016-Feb-02 20:25N 24°56' E 119°19'  

Dump ship's entire track history